Time;durP1;ratioP1;P1;durP2;ratioP2;P2;SDS_P1;SDS_P2;PMS_P1;PMS_P2;Temp;Humidity;BMP_temperature;BMP_pressure;BME280_temperature;BME280_humidity;BME280_pressure;Samples;Min_cycle;Max_cycle;Signal;HPM_P1;HPM_P2
2021/12/29 00:00:51;;;;;;;7.83;2.10;;;5.70;99.90;;;;;;4151060;28;20471;-76
2021/12/29 00:02:53;;;;;;;3.77;1.87;;;5.70;99.90;;;;;;4156524;28;20529;-76
2021/12/29 00:04:55;;;;;;;7.97;2.00;;;5.70;99.90;;;;;;4157303;28;20541;-76
2021/12/29 00:06:58;;;;;;;5.33;1.60;;;5.70;99.90;;;;;;4152868;28;20456;-76
2021/12/29 00:09:00;;;;;;;7.13;1.90;;;5.70;99.90;;;;;;4150735;28;20476;-76
2021/12/29 00:11:02;;;;;;;3.17;1.50;;;5.70;99.90;;;;;;4152550;28;20451;-76
2021/12/29 00:13:04;;;;;;;3.83;1.67;;;5.70;99.90;;;;;;4151459;28;20456;-76
2021/12/29 00:15:06;;;;;;;3.83;1.60;;;5.70;99.90;;;;;;4152461;28;20977;-76
2021/12/29 00:17:08;;;;;;;5.43;1.40;;;5.70;99.90;;;;;;4157732;28;20458;-76
2021/12/29 00:19:10;;;;;;;4.57;1.20;;;5.70;99.90;;;;;;4150163;28;20474;-76
2021/12/29 00:21:14;;;;;;;3.97;1.20;;;5.70;99.90;;;;;;4152235;28;20468;-76
2021/12/29 00:23:17;;;;;;;2.10;1.23;;;5.70;99.90;;;;;;4150986;28;20506;-76
2021/12/29 00:25:20;;;;;;;8.20;1.63;;;5.70;99.90;;;;;;4156074;28;20939;-76
2021/12/29 00:27:23;;;;;;;4.47;1.30;;;5.70;99.90;;;;;;4153192;28;20479;-76
2021/12/29 00:29:27;;;;;;;4.43;1.60;;;5.70;99.90;;;;;;4151872;28;20474;-76
2021/12/29 00:31:31;;;;;;;6.73;1.70;;;5.70;99.90;;;;;;4149352;28;20486;-76
2021/12/29 00:33:32;;;;;;;5.40;1.53;;;5.70;99.90;;;;;;4151569;28;20463;-76
2021/12/29 00:35:35;;;;;;;4.00;1.30;;;5.70;99.90;;;;;;4150538;28;20956;-76
2021/12/29 00:37:36;;;;;;;6.43;1.47;;;5.70;99.90;;;;;;4163922;28;20463;-76
2021/12/29 00:39:39;;;;;;;4.40;1.53;;;5.70;99.90;;;;;;4162905;28;20900;-76
2021/12/29 00:41:41;;;;;;;6.80;1.77;;;5.70;99.90;;;;;;4160291;28;20454;-76
2021/12/29 00:43:44;;;;;;;3.13;1.50;;;5.70;99.90;;;;;;4162339;28;20529;-76
2021/12/29 00:45:47;;;;;;;3.10;1.30;;;5.70;99.90;;;;;;4163424;28;20490;-75
2021/12/29 00:47:50;;;;;;;6.00;1.50;;;5.70;99.90;;;;;;4162619;28;20486;-75
2021/12/29 00:49:53;;;;;;;3.63;1.47;;;5.60;99.90;;;;;;4162882;28;20529;-75
2021/12/29 00:51:55;;;;;;;4.57;1.70;;;5.60;99.90;;;;;;4155103;28;20570;-76
2021/12/29 00:53:57;;;;;;;7.20;1.53;;;5.60;99.90;;;;;;4161621;28;20471;-76
2021/12/29 00:56:00;;;;;;;5.30;1.43;;;5.70;99.90;;;;;;4163802;28;20455;-76
2021/12/29 00:58:03;;;;;;;5.30;1.30;;;5.60;99.90;;;;;;4162842;28;20520;-76
2021/12/29 01:00:06;;;;;;;3.07;1.30;;;5.60;99.90;;;;;;4162106;28;20470;-75
2021/12/29 01:02:08;;;;;;;3.07;1.30;;;5.60;99.90;;;;;;4161337;28;20494;-75
2021/12/29 01:04:10;;;;;;;3.90;1.30;;;5.60;99.90;;;;;;4163702;28;20791;-75
2021/12/29 01:06:12;;;;;;;5.23;1.57;;;5.60;99.90;;;;;;4162319;28;20498;-76
2021/12/29 01:08:14;;;;;;;3.30;1.27;;;5.60;99.90;;;;;;4161787;28;20474;-76
2021/12/29 01:10:17;;;;;;;3.93;1.20;;;5.60;99.90;;;;;;4161727;28;20593;-76
2021/12/29 01:12:20;;;;;;;6.17;1.87;;;5.60;99.90;;;;;;4162786;28;20464;-76
2021/12/29 01:14:23;;;;;;;4.90;1.37;;;5.60;99.90;;;;;;4162179;28;20459;-76
2021/12/29 01:16:39;;;;;;;5.60;1.13;;;5.60;99.90;;;;;;4163938;28;20520;-76
2021/12/29 01:18:43;;;;;;;5.07;1.43;;;5.60;99.90;;;;;;4162995;28;20559;-76
2021/12/29 01:20:44;;;;;;;8.20;1.93;;;5.60;99.90;;;;;;4159652;28;20515;-75
2021/12/29 01:22:46;;;;;;;8.63;1.90;;;5.50;99.90;;;;;;4158601;28;20553;-76
2021/12/29 01:24:48;;;;;;;5.53;1.63;;;5.50;99.90;;;;;;4162786;28;20467;-76
2021/12/29 01:26:50;;;;;;;4.83;1.80;;;5.50;99.90;;;;;;4164331;28;20544;-76
2021/12/29 01:28:53;;;;;;;9.73;1.77;;;5.50;99.90;;;;;;4161312;28;20951;-76
2021/12/29 01:30:55;;;;;;;5.33;1.80;;;5.50;99.90;;;;;;4165292;28;20541;-76
2021/12/29 01:33:00;;;;;;;5.93;1.77;;;5.50;99.90;;;;;;4166140;28;20519;-76
2021/12/29 01:35:02;;;;;;;7.87;1.87;;;5.50;99.90;;;;;;4150538;28;20501;-76
2021/12/29 01:37:04;;;;;;;5.20;2.00;;;5.40;99.90;;;;;;4150898;28;20466;-76
2021/12/29 01:39:09;;;;;;;3.30;1.60;;;5.40;99.90;;;;;;4165787;28;20481;-76
2021/12/29 01:41:11;;;;;;;9.90;2.43;;;5.40;99.90;;;;;;4177988;23;20506;-84
2021/12/29 01:43:13;;;;;;;8.33;2.30;;;5.50;99.90;;;;;;4151840;28;20448;-83
2021/12/29 01:45:16;;;;;;;9.20;1.90;;;5.50;99.90;;;;;;4141338;28;20490;-83
2021/12/29 01:47:24;;;;;;;6.00;1.77;;;5.50;99.90;;;;;;4153703;28;20459;-84
2021/12/29 01:49:26;;;;;;;5.13;1.50;;;5.50;99.90;;;;;;4154254;28;21010;-83
2021/12/29 01:51:30;;;;;;;6.00;1.80;;;5.60;99.90;;;;;;4146403;28;20549;-83
2021/12/29 01:53:33;;;;;;;5.23;1.63;;;5.50;99.90;;;;;;4147747;28;20471;-83
2021/12/29 01:55:35;;;;;;;6.23;1.80;;;5.50;99.90;;;;;;4153242;28;20463;-83
2021/12/29 01:57:38;;;;;;;5.93;1.70;;;5.50;99.90;;;;;;4154685;28;20502;-83
2021/12/29 01:59:41;;;;;;;3.37;1.60;;;5.50;99.90;;;;;;4139485;28;20871;-84
2021/12/29 02:01:44;;;;;;;6.37;2.00;;;5.50;99.90;;;;;;4137521;28;20456;-84
2021/12/29 02:03:47;;;;;;;8.80;1.97;;;5.60;99.90;;;;;;4137202;28;20461;-84
2021/12/29 02:05:49;;;;;;;6.37;1.80;;;5.60;99.90;;;;;;4138172;28;20531;-83
2021/12/29 02:07:51;;;;;;;5.17;1.73;;;5.50;99.90;;;;;;4138673;28;20890;-84
2021/12/29 02:09:52;;;;;;;4.70;1.80;;;5.70;99.90;;;;;;4133299;28;20525;-84
2021/12/29 02:11:54;;;;;;;4.80;1.50;;;5.50;99.90;;;;;;4137875;28;20839;-85
2021/12/29 02:13:57;;;;;;;3.90;1.63;;;5.50;99.90;;;;;;4144632;28;20463;-83
2021/12/29 02:15:58;;;;;;;4.53;1.60;;;5.50;99.90;;;;;;4154040;28;20454;-85
2021/12/29 02:18:01;;;;;;;7.23;1.50;;;5.50;99.90;;;;;;4148810;28;20461;-83
2021/12/29 02:20:06;;;;;;;7.40;1.90;;;5.50;99.90;;;;;;4153863;28;20483;-83
2021/12/29 02:22:13;;;;;;;4.97;1.50;;;5.50;99.90;;;;;;4147499;28;20475;-84
2021/12/29 02:24:20;;;;;;;7.23;1.57;;;5.50;99.90;;;;;;4155649;28;21094;-84
2021/12/29 02:26:23;;;;;;;5.13;1.40;;;5.50;99.90;;;;;;4152383;28;20498;-85
2021/12/29 02:28:27;;;;;;;3.13;1.43;;;5.50;99.90;;;;;;4124649;28;20458;-85
2021/12/29 02:30:29;;;;;;;3.27;1.20;;;5.40;99.90;;;;;;4119122;28;20481;-83
2021/12/29 02:32:31;;;;;;;4.93;1.20;;;5.50;99.90;;;;;;4140919;28;20462;-84
2021/12/29 02:34:33;;;;;;;5.13;1.30;;;5.50;99.90;;;;;;4133859;28;20478;-84
2021/12/29 02:36:43;;;;;;;4.40;1.20;;;5.50;99.90;;;;;;4135914;28;20491;-85
2021/12/29 02:38:49;;;;;;;2.13;1.00;;;5.50;99.90;;;;;;4134752;28;20525;-83
2021/12/29 02:40:54;;;;;;;1.87;1.10;;;5.50;99.90;;;;;;4135107;28;20849;-84
2021/12/29 02:42:55;;;;;;;2.63;1.17;;;5.40;99.90;;;;;;4133058;28;20847;-84
2021/12/29 02:45:02;;;;;;;8.57;1.40;;;5.40;99.90;;;;;;4151345;28;20506;-84
2021/12/29 02:47:04;;;;;;;2.47;0.90;;;5.40;99.90;;;;;;4148712;28;20565;-85
2021/12/29 02:49:06;;;;;;;3.93;1.30;;;5.40;99.90;;;;;;4149414;28;20818;-85
2021/12/29 02:51:08;;;;;;;3.90;1.20;;;5.40;99.90;;;;;;4134108;28;20526;-83
2021/12/29 02:53:12;;;;;;;3.60;1.40;;;5.50;99.90;;;;;;4125199;28;20586;-84
2021/12/29 02:55:14;;;;;;;4.23;1.10;;;5.50;99.90;;;;;;4136682;28;20654;-84
2021/12/29 02:57:16;;;;;;;5.10;1.20;;;5.50;99.90;;;;;;4138615;28;20502;-85
2021/12/29 02:59:18;;;;;;;3.40;1.17;;;5.50;99.90;;;;;;4136235;28;20449;-84
2021/12/29 03:01:20;;;;;;;5.07;1.60;;;5.50;99.90;;;;;;4135036;28;20492;-84
2021/12/29 03:03:23;;;;;;;5.17;1.30;;;5.50;99.90;;;;;;4142606;28;20480;-84
2021/12/29 03:05:26;;;;;;;4.50;1.00;;;5.50;99.90;;;;;;4146429;28;20957;-84
2021/12/29 03:07:28;;;;;;;3.43;1.13;;;5.50;99.90;;;;;;4147260;28;20489;-84
2021/12/29 03:09:31;;;;;;;3.67;1.27;;;5.60;99.90;;;;;;4136736;28;20460;-85
2021/12/29 03:11:33;;;;;;;7.43;1.40;;;5.50;99.90;;;;;;4123471;28;20499;-85
2021/12/29 03:13:38;;;;;;;5.00;1.40;;;5.60;99.90;;;;;;4139775;28;20472;-84
2021/12/29 03:15:40;;;;;;;5.27;1.30;;;5.60;99.90;;;;;;4137114;28;20465;-85
2021/12/29 03:17:42;;;;;;;4.07;1.50;;;5.60;99.90;;;;;;4137274;28;20468;-84
2021/12/29 03:19:43;;;;;;;5.23;1.30;;;5.60;99.90;;;;;;4123207;28;20528;-85
2021/12/29 03:21:46;;;;;;;6.30;1.40;;;5.60;99.90;;;;;;4121737;28;20462;-84
2021/12/29 03:23:49;;;;;;;2.57;1.40;;;5.60;99.90;;;;;;4134626;28;20461;-84
2021/12/29 03:25:52;;;;;;;3.00;1.40;;;5.60;99.90;;;;;;4149416;28;20475;-84
2021/12/29 03:27:58;;;;;;;3.73;1.53;;;5.80;99.90;;;;;;4127334;28;20473;-84
2021/12/29 03:30:00;;;;;;;5.07;1.67;;;5.60;99.90;;;;;;4116570;28;20477;-84
2021/12/29 03:32:06;;;;;;;6.57;1.57;;;5.60;99.90;;;;;;4122980;28;20451;-84
2021/12/29 03:34:08;;;;;;;3.57;1.30;;;5.60;99.90;;;;;;4128682;28;20804;-84
2021/12/29 03:36:11;;;;;;;7.67;1.80;;;5.60;99.90;;;;;;4133800;28;20456;-84
2021/12/29 03:38:16;;;;;;;5.53;1.50;;;5.60;99.90;;;;;;4140480;28;20535;-84
2021/12/29 03:40:18;;;;;;;6.40;1.57;;;5.60;99.90;;;;;;4149892;28;20486;-84
2021/12/29 03:42:21;;;;;;;4.90;1.63;;;5.60;99.90;;;;;;4147361;28;20436;-84
2021/12/29 03:44:23;;;;;;;3.27;1.47;;;5.60;99.90;;;;;;4132525;28;20514;-84
2021/12/29 03:46:26;;;;;;;6.07;1.50;;;5.60;99.90;;;;;;4117652;28;20529;-84
2021/12/29 03:48:29;;;;;;;5.43;1.80;;;5.60;99.90;;;;;;4118639;28;20469;-85
2021/12/29 03:50:31;;;;;;;5.83;1.83;;;5.60;99.90;;;;;;4135872;28;20468;-83
2021/12/29 03:52:33;;;;;;;7.97;2.03;;;5.60;99.90;;;;;;4131064;28;20902;-84
2021/12/29 03:54:34;;;;;;;9.63;2.27;;;5.60;99.90;;;;;;4134573;28;20476;-85
2021/12/29 03:56:36;;;;;;;6.63;2.10;;;5.60;99.90;;;;;;4135721;28;20468;-85
2021/12/29 03:58:41;;;;;;;4.97;1.87;;;5.60;99.90;;;;;;4133567;28;20496;-84
2021/12/29 04:00:44;;;;;;;7.27;2.07;;;5.60;99.90;;;;;;4127426;28;20498;-84
2021/12/29 04:02:46;;;;;;;7.50;2.23;;;5.60;99.90;;;;;;4121608;28;20829;-84
2021/12/29 04:04:49;;;;;;;6.80;2.30;;;5.60;99.90;;;;;;4133174;28;20469;-85
2021/12/29 04:06:50;;;;;;;8.50;1.90;;;5.60;99.90;;;;;;4132630;28;20489;-85
2021/12/29 04:08:52;;;;;;;8.97;2.60;;;5.60;99.90;;;;;;4125147;28;20831;-84
2021/12/29 04:10:54;;;;;;;6.77;2.47;;;5.80;99.90;;;;;;4148087;28;20980;-84
2021/12/29 04:12:56;;;;;;;5.97;2.37;;;5.60;99.90;;;;;;4133371;28;21991;-84
2021/12/29 04:14:59;;;;;;;7.23;2.53;;;5.60;99.90;;;;;;4118482;28;20454;-84
2021/12/29 04:17:08;;;;;;;8.77;2.50;;;5.60;99.90;;;;;;4117547;28;20974;-84
2021/12/29 04:19:17;;;;;;;8.07;2.60;;;5.60;99.90;;;;;;4147032;28;20501;-84
2021/12/29 04:21:18;;;;;;;6.63;2.50;;;5.70;99.90;;;;;;4144324;28;20984;-84
2021/12/29 04:23:20;;;;;;;6.03;2.40;;;5.80;99.90;;;;;;4140177;28;20525;-85
2021/12/29 04:25:24;;;;;;;5.63;2.60;;;5.60;99.90;;;;;;4131192;28;20219;-84
2021/12/29 04:27:26;;;;;;;8.47;2.47;;;5.60;99.90;;;;;;4121458;28;20505;-84
2021/12/29 04:29:27;;;;;;;6.30;2.07;;;5.70;99.90;;;;;;4116717;28;20468;-84
2021/12/29 04:31:30;;;;;;;3.07;2.10;;;5.60;99.90;;;;;;4120942;28;20529;-84
2021/12/29 04:33:33;;;;;;;3.93;1.90;;;5.60;99.90;;;;;;4141806;28;20485;-84
2021/12/29 04:35:35;;;;;;;3.63;2.00;;;5.60;99.90;;;;;;4140198;28;20509;-84
2021/12/29 04:37:38;;;;;;;5.30;1.90;;;5.60;99.90;;;;;;4120829;28;20473;-84
2021/12/29 04:39:40;;;;;;;4.50;1.90;;;5.60;99.90;;;;;;4139346;28;20949;-83
2021/12/29 04:41:42;;;;;;;5.73;2.33;;;5.60;99.90;;;;;;4150020;28;20995;-83
2021/12/29 04:43:44;;;;;;;5.73;1.67;;;5.60;99.90;;;;;;4149220;28;20459;-84
2021/12/29 04:45:46;;;;;;;5.33;1.80;;;5.60;99.90;;;;;;4138244;28;20481;-83
2021/12/29 04:47:50;;;;;;;3.70;1.83;;;5.50;99.90;;;;;;4134374;28;20560;-83
2021/12/29 04:49:51;;;;;;;5.33;1.87;;;5.50;99.90;;;;;;4133930;28;20484;-84
2021/12/29 04:52:02;;;;;;;3.57;1.57;;;5.50;99.90;;;;;;4133965;28;20469;-83
2021/12/29 04:54:06;;;;;;;6.07;2.00;;;5.50;99.90;;;;;;4136458;28;20478;-84
2021/12/29 04:56:08;;;;;;;5.63;2.03;;;5.50;99.90;;;;;;4141653;28;20498;-84
2021/12/29 04:58:10;;;;;;;7.20;2.00;;;5.50;99.90;;;;;;4133479;28;20470;-83
2021/12/29 05:00:12;;;;;;;6.97;2.20;;;5.50;99.90;;;;;;4133094;28;20477;-85
2021/12/29 05:02:14;;;;;;;8.77;2.10;;;5.50;99.90;;;;;;4137180;28;20507;-84
2021/12/29 05:04:21;;;;;;;5.77;2.20;;;5.50;99.90;;;;;;4150570;28;20839;-84
2021/12/29 05:08:42;;;;;;;5.73;1.80;;;5.50;99.90;;;;;;4135536;28;20490;-84
2021/12/29 05:10:45;;;;;;;3.83;1.87;;;5.40;99.90;;;;;;4130718;28;21015;-84
2021/12/29 05:12:47;;;;;;;5.23;2.10;;;5.40;99.90;;;;;;4133777;28;20464;-84
2021/12/29 05:14:48;;;;;;;4.63;2.00;;;5.30;99.90;;;;;;4136129;28;20460;-84
2021/12/29 05:16:50;;;;;;;3.37;1.70;;;5.30;99.90;;;;;;4124388;28;20454;-84
2021/12/29 05:18:52;;;;;;;3.97;1.60;;;5.30;99.90;;;;;;4121828;28;20471;-84
2021/12/29 05:20:56;;;;;;;2.50;1.40;;;5.30;99.90;;;;;;4123644;28;20483;-84
2021/12/29 05:23:00;;;;;;;5.27;1.80;;;5.20;99.90;;;;;;4130607;28;20500;-84
2021/12/29 05:25:01;;;;;;;3.93;2.03;;;5.20;99.90;;;;;;4143824;28;20464;-84
2021/12/29 05:27:04;;;;;;;3.87;2.00;;;5.20;99.90;;;;;;4136465;28;21009;-84
2021/12/29 05:29:06;;;;;;;4.30;2.20;;;5.10;99.90;;;;;;4137694;28;20499;-84
2021/12/29 05:31:07;;;;;;;5.50;2.10;;;5.10;99.90;;;;;;4138820;28;20526;-84
2021/12/29 05:33:09;;;;;;;9.63;2.50;;;5.10;99.90;;;;;;4143149;28;20536;-84
2021/12/29 05:35:11;;;;;;;5.40;2.33;;;5.00;99.90;;;;;;4143954;28;21007;-84
2021/12/29 05:37:14;;;;;;;3.93;1.93;;;5.00;99.90;;;;;;4137268;28;20459;-84
2021/12/29 05:39:16;;;;;;;5.93;2.43;;;5.00;99.90;;;;;;4136959;28;20463;-84
2021/12/29 05:41:19;;;;;;;5.10;2.23;;;5.00;99.90;;;;;;4138218;28;21002;-84
2021/12/29 05:43:21;;;;;;;3.70;2.23;;;5.00;99.90;;;;;;4140183;28;20945;-84
2021/12/29 05:45:24;;;;;;;5.77;2.57;;;5.00;99.90;;;;;;4137237;28;20455;-84
2021/12/29 05:47:25;;;;;;;5.43;2.40;;;5.00;99.90;;;;;;4128301;28;20907;-84
2021/12/29 05:49:27;;;;;;;5.40;2.40;;;5.00;99.90;;;;;;4137186;28;20492;-85
2021/12/29 05:51:29;;;;;;;5.67;2.70;;;5.00;99.90;;;;;;4140847;28;20502;-84
2021/12/29 05:53:32;;;;;;;5.03;2.57;;;5.00;99.90;;;;;;4133182;28;20526;-84
2021/12/29 05:55:34;;;;;;;6.37;2.07;;;5.00;99.90;;;;;;4128186;28;20459;-84
2021/12/29 05:57:36;;;;;;;4.27;2.10;;;5.00;99.90;;;;;;4138712;28;20932;-84
2021/12/29 05:59:38;;;;;;;4.37;2.13;;;5.00;99.90;;;;;;4137976;28;20509;-84
2021/12/29 06:01:42;;;;;;;5.27;2.60;;;5.00;99.90;;;;;;4149179;28;20833;-84
2021/12/29 06:03:44;;;;;;;4.23;1.93;;;5.00;99.90;;;;;;4143673;28;20482;-83
2021/12/29 06:05:46;;;;;;;4.97;1.90;;;5.00;99.90;;;;;;4147709;28;20468;-84
2021/12/29 06:07:49;;;;;;;8.20;2.27;;;5.00;99.90;;;;;;4136988;28;20913;-84
2021/12/29 06:09:52;;;;;;;3.97;2.10;;;5.00;99.90;;;;;;4138152;28;20486;-83
2021/12/29 06:11:53;;;;;;;4.10;1.90;;;5.00;99.90;;;;;;4136729;28;20526;-83
2021/12/29 06:13:55;;;;;;;3.20;1.60;;;5.00;99.90;;;;;;4152584;28;20451;-83
2021/12/29 06:15:57;;;;;;;3.67;2.03;;;5.00;99.90;;;;;;4145727;28;20460;-84
2021/12/29 06:17:59;;;;;;;4.17;2.00;;;5.10;99.90;;;;;;4135774;28;20511;-83
2021/12/29 06:20:00;;;;;;;4.97;2.10;;;5.20;99.90;;;;;;4137181;28;20495;-84
2021/12/29 06:22:03;;;;;;;3.20;2.03;;;5.00;99.90;;;;;;4139074;28;20878;-84
2021/12/29 06:24:06;;;;;;;5.57;2.50;;;5.00;99.90;;;;;;4148639;28;20467;-85
2021/12/29 06:26:09;;;;;;;3.20;2.13;;;5.00;99.90;;;;;;4149007;28;20463;-85
2021/12/29 06:28:11;;;;;;;3.67;1.93;;;5.00;99.90;;;;;;4146845;28;20491;-86
2021/12/29 06:30:15;;;;;;;3.93;2.07;;;5.00;99.90;;;;;;4134101;28;20887;-83
2021/12/29 06:32:17;;;;;;;4.37;2.17;;;5.00;99.90;;;;;;4137029;28;20445;-83
2021/12/29 06:34:19;;;;;;;4.47;2.03;;;5.00;99.90;;;;;;4134147;28;20460;-83
2021/12/29 06:36:21;;;;;;;4.57;2.00;;;5.00;99.90;;;;;;4133039;28;20985;-83
2021/12/29 06:38:23;;;;;;;5.13;2.10;;;5.00;99.90;;;;;;4137023;28;20892;-84
2021/12/29 06:40:25;;;;;;;4.77;2.10;;;5.00;99.90;;;;;;4139127;28;20483;-84
2021/12/29 06:42:28;;;;;;;5.10;2.07;;;5.00;99.90;;;;;;4137345;28;20461;-84
2021/12/29 06:44:30;;;;;;;3.77;1.80;;;5.00;99.90;;;;;;4132194;28;20462;-84
2021/12/29 06:46:32;;;;;;;2.87;1.83;;;5.00;99.90;;;;;;4128840;28;20468;-84
2021/12/29 06:48:33;;;;;;;2.93;1.60;;;5.00;99.90;;;;;;4131732;28;20499;-83
2021/12/29 06:50:35;;;;;;;2.67;1.57;;;5.00;99.90;;;;;;4132167;28;20461;-83
2021/12/29 06:52:37;;;;;;;3.27;1.90;;;5.00;99.90;;;;;;4131899;28;20517;-83
2021/12/29 06:54:39;;;;;;;2.93;1.50;;;5.00;99.90;;;;;;4130628;28;20518;-84
2021/12/29 06:56:41;;;;;;;4.60;1.60;;;5.00;99.90;;;;;;4134316;28;20469;-84
2021/12/29 06:58:44;;;;;;;3.53;1.97;;;5.00;99.90;;;;;;4135563;28;20467;-83
2021/12/29 07:00:46;;;;;;;3.63;2.20;;;4.90;99.90;;;;;;4134687;28;20484;-84
2021/12/29 07:02:48;;;;;;;3.23;1.70;;;5.00;99.90;;;;;;4135061;28;20974;-83
2021/12/29 07:04:49;;;;;;;3.13;1.70;;;5.00;99.90;;;;;;4143719;28;20910;-84
2021/12/29 07:06:51;;;;;;;3.10;1.80;;;5.00;99.90;;;;;;4136386;28;20456;-83
2021/12/29 07:08:53;;;;;;;4.17;1.63;;;5.00;99.90;;;;;;4139377;28;20502;-84
2021/12/29 07:10:55;;;;;;;5.70;1.90;;;5.00;99.90;;;;;;4136220;28;20911;-84
2021/12/29 07:12:57;;;;;;;5.80;2.27;;;5.00;99.90;;;;;;4135168;28;20453;-84
2021/12/29 07:15:00;;;;;;;4.73;2.27;;;5.10;99.90;;;;;;4135470;28;20444;-83
2021/12/29 07:17:02;;;;;;;6.10;2.20;;;5.10;99.90;;;;;;4134054;28;20834;-85
2021/12/29 07:19:04;;;;;;;5.77;2.43;;;5.10;99.90;;;;;;4134392;28;20507;-84
2021/12/29 07:21:05;;;;;;;3.93;1.90;;;5.20;99.90;;;;;;4126671;28;20490;-84
2021/12/29 07:23:07;;;;;;;3.40;1.90;;;5.30;99.90;;;;;;4139477;28;20455;-87
2021/12/29 07:25:09;;;;;;;3.53;2.27;;;5.20;99.90;;;;;;4142958;28;21371;-81
2021/12/29 07:27:12;;;;;;;7.07;2.63;;;5.30;99.90;;;;;;4139311;28;20918;-84
2021/12/29 07:29:14;;;;;;;5.23;2.17;;;5.30;99.90;;;;;;4133450;28;20471;-84
2021/12/29 07:31:18;;;;;;;3.53;2.37;;;5.30;99.90;;;;;;4137038;28;20475;-84
2021/12/29 07:33:20;;;;;;;4.10;2.50;;;5.30;99.90;;;;;;4138896;28;20482;-84
2021/12/29 07:35:22;;;;;;;5.03;2.57;;;5.30;99.90;;;;;;4139334;28;20452;-84
2021/12/29 07:37:26;;;;;;;8.20;2.80;;;5.30;99.90;;;;;;4140876;28;20562;-84
2021/12/29 07:41:47;;;;;;;4.80;2.43;;;5.30;99.90;;;;;;4205604;27;20586;-75
2021/12/29 07:43:50;;;;;;;8.93;3.53;;;5.40;99.90;;;;;;4204466;28;20542;-74
2021/12/29 07:45:54;;;;;;;5.40;2.77;;;5.40;99.90;;;;;;4199497;28;20541;-74
2021/12/29 07:47:56;;;;;;;5.67;2.87;;;5.40;99.90;;;;;;4204657;28;20472;-75
2021/12/29 07:49:57;;;;;;;5.70;2.80;;;5.50;99.90;;;;;;4199438;28;20488;-74
2021/12/29 07:51:59;;;;;;;4.50;2.87;;;5.50;99.90;;;;;;4186334;28;21003;-74
2021/12/29 07:54:01;;;;;;;4.57;3.00;;;5.50;99.90;;;;;;4183803;28;20485;-76
2021/12/29 07:56:04;;;;;;;4.60;2.77;;;5.50;99.90;;;;;;4187869;28;20801;-76
2021/12/29 07:58:07;;;;;;;4.77;2.87;;;5.50;99.90;;;;;;4188501;28;21014;-76
2021/12/29 08:00:10;;;;;;;5.17;2.70;;;5.50;99.90;;;;;;4188399;28;21009;-75
2021/12/29 08:02:17;;;;;;;4.87;2.70;;;5.50;99.90;;;;;;4184820;28;20470;-77
2021/12/29 08:04:20;;;;;;;5.03;3.10;;;5.50;99.90;;;;;;4190177;28;20491;-76
2021/12/29 08:06:21;;;;;;;5.57;3.10;;;5.60;99.90;;;;;;4186644;28;20556;-77
2021/12/29 08:08:23;;;;;;;5.63;3.20;;;5.60;99.90;;;;;;4187283;28;20937;-76
2021/12/29 08:10:25;;;;;;;7.33;3.03;;;5.60;99.90;;;;;;4187923;28;20476;-76
2021/12/29 08:12:27;;;;;;;5.60;2.80;;;5.60;99.90;;;;;;4186683;28;20515;-76
2021/12/29 08:14:30;;;;;;;6.83;3.20;;;5.60;99.90;;;;;;4187675;28;20520;-77
2021/12/29 08:16:32;;;;;;;4.43;2.80;;;5.60;99.90;;;;;;4185400;28;20476;-76
2021/12/29 08:18:33;;;;;;;6.30;3.30;;;5.60;99.90;;;;;;4188057;28;20460;-75
2021/12/29 08:20:36;;;;;;;6.30;3.30;;;5.60;99.90;;;;;;4183052;28;20498;-75
2021/12/29 08:22:38;;;;;;;4.67;2.90;;;5.70;99.90;;;;;;4186502;28;20450;-77
2021/12/29 08:24:40;;;;;;;5.00;2.87;;;5.70;99.90;;;;;;4188749;28;20526;-76
2021/12/29 08:26:42;;;;;;;4.23;2.87;;;5.70;99.90;;;;;;4187551;28;20518;-75
2021/12/29 08:28:44;;;;;;;5.13;2.70;;;5.70;99.90;;;;;;4186584;28;20527;-77
2021/12/29 08:30:47;;;;;;;5.13;2.80;;;5.80;99.90;;;;;;4188364;28;20534;-76
2021/12/29 08:32:49;;;;;;;3.73;2.70;;;5.80;99.90;;;;;;4188498;28;21000;-77
2021/12/29 08:34:51;;;;;;;5.50;3.50;;;5.80;99.90;;;;;;4186953;28;20469;-76
2021/12/29 08:36:53;;;;;;;6.17;2.97;;;5.80;99.90;;;;;;4186672;28;20884;-76
2021/12/29 08:38:55;;;;;;;5.43;3.40;;;5.80;99.90;;;;;;4186592;28;20603;-78
2021/12/29 08:40:57;;;;;;;7.57;3.63;;;5.80;99.90;;;;;;4185574;28;20502;-77
2021/12/29 08:43:01;;;;;;;6.63;3.40;;;5.90;99.90;;;;;;4187311;28;20457;-76
2021/12/29 08:45:04;;;;;;;4.30;2.90;;;5.90;99.90;;;;;;4185343;28;20848;-77
2021/12/29 08:47:08;;;;;;;7.43;3.70;;;5.90;99.90;;;;;;4187067;28;20516;-77
2021/12/29 08:49:10;;;;;;;6.03;3.40;;;5.90;99.90;;;;;;4186688;28;20458;-76
2021/12/29 08:51:12;;;;;;;5.87;3.03;;;5.90;99.90;;;;;;4186982;28;21435;-77
2021/12/29 08:53:14;;;;;;;6.90;3.20;;;5.90;99.90;;;;;;4172208;28;20480;-76
2021/12/29 08:55:16;;;;;;;6.00;3.50;;;6.00;99.90;;;;;;4175460;28;20533;-77
2021/12/29 08:57:18;;;;;;;6.27;3.40;;;6.00;99.90;;;;;;4176321;28;20463;-77
2021/12/29 08:59:19;;;;;;;5.73;3.37;;;6.00;99.90;;;;;;4175477;28;20470;-80
2021/12/29 09:01:23;;;;;;;7.47;3.40;;;6.00;99.90;;;;;;4175791;28;21001;-77
2021/12/29 09:03:26;;;;;;;5.57;3.43;;;6.10;99.90;;;;;;4175784;28;20454;-76
2021/12/29 09:05:28;;;;;;;6.03;3.77;;;6.10;99.90;;;;;;4175607;28;20462;-77
2021/12/29 09:07:29;;;;;;;7.37;3.80;;;6.10;99.90;;;;;;4175374;28;20524;-77
2021/12/29 09:09:31;;;;;;;6.33;4.03;;;6.10;99.90;;;;;;4174712;28;21276;-75
2021/12/29 09:11:33;;;;;;;6.37;3.63;;;6.10;99.90;;;;;;4176425;28;20462;-80
2021/12/29 09:13:35;;;;;;;6.17;3.77;;;6.10;99.90;;;;;;4176331;28;20516;-75
2021/12/29 09:15:37;;;;;;;5.70;3.60;;;6.20;99.90;;;;;;4176002;28;20552;-75
2021/12/29 09:17:39;;;;;;;5.23;3.50;;;6.20;99.90;;;;;;4175277;28;20841;-76
2021/12/29 09:19:44;;;;;;;5.63;3.30;;;6.20;99.90;;;;;;4174280;28;20467;-76
2021/12/29 09:21:48;;;;;;;6.37;4.17;;;6.20;99.90;;;;;;4175241;28;20926;-75
2021/12/29 09:23:50;;;;;;;7.27;3.90;;;6.20;99.90;;;;;;4173940;28;21002;-76
2021/12/29 09:25:53;;;;;;;6.23;3.70;;;6.30;99.90;;;;;;4176889;28;20964;-75
2021/12/29 09:27:55;;;;;;;6.47;3.60;;;6.30;99.90;;;;;;4175038;28;20456;-76
2021/12/29 09:29:57;;;;;;;5.60;3.43;;;6.30;99.90;;;;;;4173924;28;21011;-75
2021/12/29 09:31:59;;;;;;;6.50;3.93;;;6.30;99.90;;;;;;4176101;28;20601;-76
2021/12/29 09:34:01;;;;;;;5.10;3.10;;;6.30;99.90;;;;;;4174300;28;21024;-75
2021/12/29 09:36:05;;;;;;;5.73;3.70;;;6.30;99.90;;;;;;4174277;28;20467;-75
2021/12/29 09:38:08;;;;;;;6.17;3.60;;;6.30;99.90;;;;;;4173137;28;20879;-75
2021/12/29 09:40:12;;;;;;;4.57;3.40;;;6.40;99.90;;;;;;4171833;28;20556;-75
2021/12/29 09:42:13;;;;;;;7.47;4.03;;;6.40;99.90;;;;;;4175577;28;21318;-75
2021/12/29 09:44:15;;;;;;;7.37;4.40;;;6.40;99.90;;;;;;4175590;28;20460;-75
2021/12/29 09:46:17;;;;;;;6.37;4.17;;;6.40;99.90;;;;;;4174902;28;20475;-76
2021/12/29 09:48:20;;;;;;;8.03;5.13;;;6.40;99.90;;;;;;4175149;28;20455;-75
2021/12/29 09:50:22;;;;;;;6.77;4.30;;;6.40;99.90;;;;;;4172328;28;21014;-75
2021/12/29 09:52:29;;;;;;;6.93;4.70;;;6.40;99.90;;;;;;4170839;28;20463;-75
2021/12/29 09:54:31;;;;;;;9.43;4.63;;;6.40;99.90;;;;;;4168721;28;20468;-75
2021/12/29 09:56:33;;;;;;;6.00;3.77;;;6.40;99.90;;;;;;4170409;28;20475;-75
2021/12/29 09:58:35;;;;;;;7.73;3.93;;;6.40;99.90;;;;;;4174201;28;20526;-75
2021/12/29 10:00:39;;;;;;;6.40;4.37;;;6.40;99.90;;;;;;4174010;28;20480;-75
2021/12/29 10:02:40;;;;;;;6.50;3.90;;;6.50;99.90;;;;;;4175658;28;20535;-75
2021/12/29 10:04:46;;;;;;;6.37;4.03;;;6.50;99.90;;;;;;4173901;28;21038;-75
2021/12/29 10:06:47;;;;;;;6.70;4.17;;;6.50;99.90;;;;;;4174826;28;20463;-75
2021/12/29 10:08:52;;;;;;;7.00;4.27;;;6.50;99.90;;;;;;4175503;28;20514;-75
2021/12/29 10:10:57;;;;;;;8.03;5.10;;;6.50;99.90;;;;;;4177261;28;20869;-75
2021/12/29 10:13:00;;;;;;;13.03;6.40;;;6.60;99.90;;;;;;4172718;28;20999;-75
2021/12/29 10:15:02;;;;;;;15.30;6.90;;;6.60;99.90;;;;;;4175538;28;21006;-75
2021/12/29 10:17:11;;;;;;;12.80;7.23;;;6.60;99.90;;;;;;4175477;28;20549;-75
2021/12/29 10:19:15;;;;;;;12.70;6.60;;;6.60;99.90;;;;;;4174146;28;20465;-75
2021/12/29 10:21:19;;;;;;;11.03;6.20;;;6.60;99.90;;;;;;4174415;28;20652;-74
2021/12/29 10:23:23;;;;;;;10.23;6.60;;;6.60;99.90;;;;;;4173902;28;20470;-75
2021/12/29 10:25:26;;;;;;;8.23;4.87;;;6.70;99.90;;;;;;4174215;28;20468;-75
2021/12/29 10:27:30;;;;;;;8.17;4.50;;;6.70;99.90;;;;;;4174115;28;20475;-75
2021/12/29 10:29:32;;;;;;;6.60;3.80;;;6.70;99.90;;;;;;4173011;28;20471;-75
2021/12/29 10:31:38;;;;;;;6.70;4.20;;;6.70;99.90;;;;;;4173892;28;20479;-74
2021/12/29 10:33:42;;;;;;;6.27;3.73;;;6.70;99.90;;;;;;4175450;28;20474;-75
2021/12/29 10:35:44;;;;;;;6.63;3.93;;;6.70;99.90;;;;;;4174076;28;20471;-75
2021/12/29 10:37:46;;;;;;;6.23;4.07;;;6.70;99.90;;;;;;4173846;28;20861;-75
2021/12/29 10:39:50;;;;;;;5.43;3.70;;;6.70;99.90;;;;;;4170850;28;20528;-75
2021/12/29 10:41:56;;;;;;;6.83;4.07;;;6.80;99.90;;;;;;4174784;28;21286;-75
2021/12/29 10:43:59;;;;;;;5.30;3.80;;;6.80;99.90;;;;;;4173034;28;20948;-74
2021/12/29 10:46:01;;;;;;;6.70;4.30;;;6.80;99.90;;;;;;4170813;28;20475;-75
2021/12/29 10:48:16;;;;;;;5.23;3.53;;;6.80;99.90;;;;;;4170738;28;20468;-74
2021/12/29 10:50:18;;;;;;;6.30;3.87;;;6.90;99.90;;;;;;4171783;28;20559;-75
2021/12/29 10:52:34;;;;;;;5.10;3.53;;;6.90;99.90;;;;;;4169021;28;20524;-75